Weather at Montreal / Pierre Elliott Trudeau International Airport

Public forecast

Using degrees Celsius for public forecast. Weather courtesy of forecast.io.

Current aviation weather report (METAR) for Montreal / Pierre Elliott Trudeau International Airport

Retrieved 2021/01/22 21:00 UTC (47 minutes ago):

CYUL 222100Z 25009KT 15SM FEW045 BKN100 BKN240 M05/M10 A2971 RMK SC1AC5CI1 SLP066

Aviation forecast (TAF) for Montreal / Pierre Elliott Trudeau International Airport

Retrieved 2021/01/22 21:00 UTC (47 minutes ago):

TAF CYUL 222038Z 2221/2318 27010G20KT P6SM SCT025 BKN040 BKN100 TEMPO 2221/2224 P6SM -SN BKN020 BKN040 FM230000 27012KT P6SM FEW025 BKN040 BKN070 FM231500 29015G25KT P6SM SCT025 BKN040 RMK NXT FCST BY 230000Z